sensor_id;sensor_type;location;lat;lon;timestamp;P1;durP1;ratioP1;P2;durP2;ratioP2
63012;SDS011;62113;45.624;11.700;2023-02-28T00:00:15;8.00;;;4.93;;
63012;SDS011;62113;45.624;11.700;2023-02-28T00:02:42;7.78;;;4.93;;
63012;SDS011;62113;45.624;11.700;2023-02-28T00:05:09;9.05;;;4.93;;
63012;SDS011;62113;45.624;11.700;2023-02-28T00:07:39;6.43;;;3.47;;
63012;SDS011;62113;45.624;11.700;2023-02-28T00:10:06;5.00;;;3.90;;
63012;SDS011;62113;45.624;11.700;2023-02-28T00:12:33;6.10;;;4.35;;
63012;SDS011;62113;45.624;11.700;2023-02-28T00:15:00;4.70;;;3.58;;
63012;SDS011;62113;45.624;11.700;2023-02-28T00:17:26;6.00;;;4.40;;
63012;SDS011;62113;45.624;11.700;2023-02-28T00:19:52;8.93;;;5.10;;
63012;SDS011;62113;45.624;11.700;2023-02-28T00:22:18;5.22;;;4.18;;
63012;SDS011;62113;45.624;11.700;2023-02-28T00:24:45;6.25;;;4.30;;
63012;SDS011;62113;45.624;11.700;2023-02-28T00:27:11;6.28;;;4.15;;
63012;SDS011;62113;45.624;11.700;2023-02-28T00:29:38;4.93;;;4.03;;
63012;SDS011;62113;45.624;11.700;2023-02-28T00:32:04;4.45;;;3.80;;
63012;SDS011;62113;45.624;11.700;2023-02-28T00:36:57;4.18;;;3.75;;
63012;SDS011;62113;45.624;11.700;2023-02-28T00:39:23;6.45;;;4.00;;
63012;SDS011;62113;45.624;11.700;2023-02-28T00:41:48;5.25;;;4.45;;
63012;SDS011;62113;45.624;11.700;2023-02-28T00:44:14;5.60;;;4.18;;
63012;SDS011;62113;45.624;11.700;2023-02-28T00:46:39;6.63;;;4.50;;
63012;SDS011;62113;45.624;11.700;2023-02-28T00:49:05;4.63;;;4.10;;
63012;SDS011;62113;45.624;11.700;2023-02-28T00:51:30;4.47;;;3.63;;
63012;SDS011;62113;45.624;11.700;2023-02-28T00:53:56;5.68;;;4.30;;
63012;SDS011;62113;45.624;11.700;2023-02-28T00:56:22;5.80;;;4.63;;
63012;SDS011;62113;45.624;11.700;2023-02-28T00:58:47;7.90;;;4.60;;
63012;SDS011;62113;45.624;11.700;2023-02-28T01:01:13;6.63;;;4.53;;
63012;SDS011;62113;45.624;11.700;2023-02-28T01:03:38;5.97;;;4.13;;
63012;SDS011;62113;45.624;11.700;2023-02-28T01:06:04;6.38;;;4.22;;
63012;SDS011;62113;45.624;11.700;2023-02-28T01:08:30;4.15;;;3.72;;
63012;SDS011;62113;45.624;11.700;2023-02-28T01:10:55;5.60;;;4.10;;
63012;SDS011;62113;45.624;11.700;2023-02-28T01:13:22;6.90;;;4.53;;
63012;SDS011;62113;45.624;11.700;2023-02-28T01:15:52;6.20;;;4.40;;
63012;SDS011;62113;45.624;11.700;2023-02-28T01:18:21;6.68;;;4.30;;
63012;SDS011;62113;45.624;11.700;2023-02-28T01:20:47;6.07;;;4.32;;
63012;SDS011;62113;45.624;11.700;2023-02-28T01:23:13;5.13;;;4.10;;
63012;SDS011;62113;45.624;11.700;2023-02-28T01:25:38;5.38;;;4.25;;
63012;SDS011;62113;45.624;11.700;2023-02-28T01:28:04;5.40;;;4.10;;
63012;SDS011;62113;45.624;11.700;2023-02-28T01:30:30;5.82;;;4.47;;
63012;SDS011;62113;45.624;11.700;2023-02-28T01:32:57;5.70;;;4.35;;
63012;SDS011;62113;45.624;11.700;2023-02-28T01:35:23;8.57;;;4.93;;
63012;SDS011;62113;45.624;11.700;2023-02-28T01:37:49;4.63;;;3.78;;
63012;SDS011;62113;45.624;11.700;2023-02-28T01:40:14;9.23;;;4.35;;
63012;SDS011;62113;45.624;11.700;2023-02-28T01:42:40;4.93;;;3.58;;
63012;SDS011;62113;45.624;11.700;2023-02-28T01:47:46;6.13;;;4.20;;
63012;SDS011;62113;45.624;11.700;2023-02-28T01:50:16;5.45;;;4.22;;
63012;SDS011;62113;45.624;11.700;2023-02-28T01:52:45;7.05;;;4.40;;
63012;SDS011;62113;45.624;11.700;2023-02-28T01:55:11;6.18;;;4.32;;
63012;SDS011;62113;45.624;11.700;2023-02-28T01:57:40;5.55;;;3.95;;
63012;SDS011;62113;45.624;11.700;2023-02-28T02:00:12;5.20;;;4.20;;
63012;SDS011;62113;45.624;11.700;2023-02-28T02:02:44;5.55;;;3.78;;
63012;SDS011;62113;45.624;11.700;2023-02-28T02:05:14;6.28;;;3.83;;
63012;SDS011;62113;45.624;11.700;2023-02-28T02:07:42;5.28;;;3.60;;
63012;SDS011;62113;45.624;11.700;2023-02-28T02:10:11;7.03;;;4.45;;
63012;SDS011;62113;45.624;11.700;2023-02-28T02:16:07;6.35;;;3.85;;
63012;SDS011;62113;45.624;11.700;2023-02-28T02:18:47;6.00;;;4.03;;
63012;SDS011;62113;45.624;11.700;2023-02-28T02:29:40;6.20;;;3.50;;
63012;SDS011;62113;45.624;11.700;2023-02-28T02:37:57;4.93;;;3.80;;
63012;SDS011;62113;45.624;11.700;2023-02-28T02:40:36;4.72;;;3.70;;
63012;SDS011;62113;45.624;11.700;2023-02-28T02:43:43;5.90;;;3.78;;
63012;SDS011;62113;45.624;11.700;2023-02-28T02:46:46;3.95;;;3.53;;
63012;SDS011;62113;45.624;11.700;2023-02-28T02:48:59;8.25;;;4.25;;
63012;SDS011;62113;45.624;11.700;2023-02-28T02:51:29;6.97;;;4.78;;
63012;SDS011;62113;45.624;11.700;2023-02-28T02:54:00;7.25;;;4.90;;
63012;SDS011;62113;45.624;11.700;2023-02-28T02:56:30;4.60;;;4.00;;
63012;SDS011;62113;45.624;11.700;2023-02-28T03:01:26;6.63;;;4.18;;
63012;SDS011;62113;45.624;11.700;2023-02-28T03:03:55;7.90;;;4.45;;
63012;SDS011;62113;45.624;11.700;2023-02-28T03:06:33;5.75;;;3.80;;
63012;SDS011;62113;45.624;11.700;2023-02-28T03:09:00;6.45;;;3.88;;
63012;SDS011;62113;45.624;11.700;2023-02-28T03:11:26;6.82;;;4.32;;
63012;SDS011;62113;45.624;11.700;2023-02-28T03:16:36;6.53;;;4.38;;
63012;SDS011;62113;45.624;11.700;2023-02-28T03:24:55;4.50;;;3.63;;
63012;SDS011;62113;45.624;11.700;2023-02-28T03:32:33;8.40;;;4.10;;
63012;SDS011;62113;45.624;11.700;2023-02-28T03:37:38;5.85;;;3.75;;
63012;SDS011;62113;45.624;11.700;2023-02-28T03:40:14;5.15;;;4.13;;
63012;SDS011;62113;45.624;11.700;2023-02-28T03:42:47;8.75;;;4.93;;
63012;SDS011;62113;45.624;11.700;2023-02-28T03:45:16;7.03;;;4.50;;
63012;SDS011;62113;45.624;11.700;2023-02-28T03:50:24;7.25;;;4.15;;
63012;SDS011;62113;45.624;11.700;2023-02-28T03:53:07;6.20;;;3.90;;
63012;SDS011;62113;45.624;11.700;2023-02-28T03:55:49;5.88;;;4.40;;
63012;SDS011;62113;45.624;11.700;2023-02-28T03:58:37;5.45;;;4.35;;
63012;SDS011;62113;45.624;11.700;2023-02-28T04:01:04;5.18;;;4.10;;
63012;SDS011;62113;45.624;11.700;2023-02-28T04:03:37;5.28;;;3.85;;
63012;SDS011;62113;45.624;11.700;2023-02-28T04:06:04;5.45;;;4.10;;
63012;SDS011;62113;45.624;11.700;2023-02-28T04:08:32;5.28;;;3.58;;
63012;SDS011;62113;45.624;11.700;2023-02-28T04:11:03;6.25;;;4.40;;
63012;SDS011;62113;45.624;11.700;2023-02-28T04:13:33;4.95;;;4.30;;
63012;SDS011;62113;45.624;11.700;2023-02-28T04:15:59;6.45;;;4.38;;
63012;SDS011;62113;45.624;11.700;2023-02-28T04:18:24;5.22;;;3.90;;
63012;SDS011;62113;45.624;11.700;2023-02-28T04:20:50;8.63;;;4.45;;
63012;SDS011;62113;45.624;11.700;2023-02-28T04:23:15;8.43;;;4.25;;
63012;SDS011;62113;45.624;11.700;2023-02-28T04:25:41;7.30;;;4.18;;
63012;SDS011;62113;45.624;11.700;2023-02-28T04:28:07;6.55;;;4.20;;
63012;SDS011;62113;45.624;11.700;2023-02-28T04:30:32;5.10;;;3.97;;
63012;SDS011;62113;45.624;11.700;2023-02-28T04:32:58;8.05;;;4.10;;
63012;SDS011;62113;45.624;11.700;2023-02-28T04:35:25;5.10;;;4.10;;
63012;SDS011;62113;45.624;11.700;2023-02-28T04:37:50;5.18;;;3.78;;
63012;SDS011;62113;45.624;11.700;2023-02-28T04:40:16;8.75;;;4.50;;
63012;SDS011;62113;45.624;11.700;2023-02-28T04:42:41;5.13;;;3.60;;
63012;SDS011;62113;45.624;11.700;2023-02-28T04:45:07;5.82;;;4.18;;
63012;SDS011;62113;45.624;11.700;2023-02-28T04:47:35;5.47;;;4.55;;
63012;SDS011;62113;45.624;11.700;2023-02-28T04:50:01;5.13;;;4.45;;
63012;SDS011;62113;45.624;11.700;2023-02-28T04:52:27;9.40;;;4.28;;
63012;SDS011;62113;45.624;11.700;2023-02-28T04:54:52;6.25;;;4.13;;
63012;SDS011;62113;45.624;11.700;2023-02-28T04:57:18;4.18;;;3.38;;
63012;SDS011;62113;45.624;11.700;2023-02-28T04:59:43;9.13;;;3.88;;
63012;SDS011;62113;45.624;11.700;2023-02-28T05:02:09;5.72;;;4.47;;
63012;SDS011;62113;45.624;11.700;2023-02-28T05:04:35;6.38;;;4.57;;
63012;SDS011;62113;45.624;11.700;2023-02-28T05:07:01;7.38;;;4.85;;
63012;SDS011;62113;45.624;11.700;2023-02-28T05:09:28;8.80;;;4.82;;
63012;SDS011;62113;45.624;11.700;2023-02-28T05:11:54;8.38;;;4.43;;
63012;SDS011;62113;45.624;11.700;2023-02-28T05:14:20;6.57;;;4.43;;
63012;SDS011;62113;45.624;11.700;2023-02-28T05:16:46;4.95;;;3.97;;
63012;SDS011;62113;45.624;11.700;2023-02-28T05:19:12;5.05;;;4.28;;
63012;SDS011;62113;45.624;11.700;2023-02-28T05:21:38;6.82;;;4.25;;
63012;SDS011;62113;45.624;11.700;2023-02-28T05:24:06;6.07;;;4.53;;
63012;SDS011;62113;45.624;11.700;2023-02-28T05:26:36;6.80;;;4.47;;
63012;SDS011;62113;45.624;11.700;2023-02-28T05:29:04;7.32;;;4.45;;
63012;SDS011;62113;45.624;11.700;2023-02-28T05:31:30;7.60;;;4.50;;
63012;SDS011;62113;45.624;11.700;2023-02-28T05:33:55;14.45;;;5.47;;
63012;SDS011;62113;45.624;11.700;2023-02-28T05:36:21;7.38;;;4.68;;
63012;SDS011;62113;45.624;11.700;2023-02-28T05:38:48;10.50;;;5.18;;
63012;SDS011;62113;45.624;11.700;2023-02-28T05:41:15;7.07;;;4.80;;
63012;SDS011;62113;45.624;11.700;2023-02-28T05:43:41;7.45;;;5.05;;
63012;SDS011;62113;45.624;11.700;2023-02-28T05:46:08;6.70;;;4.88;;
63012;SDS011;62113;45.624;11.700;2023-02-28T05:48:35;5.93;;;4.38;;
63012;SDS011;62113;45.624;11.700;2023-02-28T05:53:28;6.85;;;5.05;;
63012;SDS011;62113;45.624;11.700;2023-02-28T05:55:54;7.43;;;4.78;;
63012;SDS011;62113;45.624;11.700;2023-02-28T05:58:20;7.88;;;5.07;;
63012;SDS011;62113;45.624;11.700;2023-02-28T06:00:46;6.47;;;4.57;;
63012;SDS011;62113;45.624;11.700;2023-02-28T06:03:12;5.63;;;5.00;;
63012;SDS011;62113;45.624;11.700;2023-02-28T06:05:38;7.45;;;4.72;;
63012;SDS011;62113;45.624;11.700;2023-02-28T06:08:03;6.57;;;4.85;;
63012;SDS011;62113;45.624;11.700;2023-02-28T06:10:31;8.73;;;4.75;;
63012;SDS011;62113;45.624;11.700;2023-02-28T06:12:59;10.18;;;5.05;;
63012;SDS011;62113;45.624;11.700;2023-02-28T06:15:27;6.18;;;4.88;;
63012;SDS011;62113;45.624;11.700;2023-02-28T06:17:53;14.75;;;8.23;;
63012;SDS011;62113;45.624;11.700;2023-02-28T06:20:18;17.13;;;8.88;;
63012;SDS011;62113;45.624;11.700;2023-02-28T06:22:44;16.30;;;8.75;;
63012;SDS011;62113;45.624;11.700;2023-02-28T06:25:10;17.75;;;9.57;;
63012;SDS011;62113;45.624;11.700;2023-02-28T06:27:36;19.92;;;11.25;;
63012;SDS011;62113;45.624;11.700;2023-02-28T06:30:01;17.88;;;10.65;;
63012;SDS011;62113;45.624;11.700;2023-02-28T06:32:27;21.38;;;10.70;;
63012;SDS011;62113;45.624;11.700;2023-02-28T06:34:53;13.70;;;8.60;;
63012;SDS011;62113;45.624;11.700;2023-02-28T06:37:18;15.68;;;7.47;;
63012;SDS011;62113;45.624;11.700;2023-02-28T06:39:44;10.40;;;7.35;;
63012;SDS011;62113;45.624;11.700;2023-02-28T06:42:10;14.43;;;9.07;;
63012;SDS011;62113;45.624;11.700;2023-02-28T06:44:35;25.52;;;11.02;;
63012;SDS011;62113;45.624;11.700;2023-02-28T06:47:01;24.60;;;13.70;;
63012;SDS011;62113;45.624;11.700;2023-02-28T06:49:31;22.35;;;11.93;;
63012;SDS011;62113;45.624;11.700;2023-02-28T06:51:57;24.23;;;9.95;;
63012;SDS011;62113;45.624;11.700;2023-02-28T06:54:23;19.08;;;9.90;;
63012;SDS011;62113;45.624;11.700;2023-02-28T06:56:49;18.70;;;10.40;;
63012;SDS011;62113;45.624;11.700;2023-02-28T06:59:15;20.23;;;9.98;;
63012;SDS011;62113;45.624;11.700;2023-02-28T07:01:41;15.35;;;7.30;;
63012;SDS011;62113;45.624;11.700;2023-02-28T07:04:06;9.53;;;6.17;;
63012;SDS011;62113;45.624;11.700;2023-02-28T07:06:32;8.13;;;5.43;;
63012;SDS011;62113;45.624;11.700;2023-02-28T07:08:58;7.43;;;5.47;;
63012;SDS011;62113;45.624;11.700;2023-02-28T07:11:25;7.00;;;5.60;;
63012;SDS011;62113;45.624;11.700;2023-02-28T07:13:52;10.25;;;5.30;;
63012;SDS011;62113;45.624;11.700;2023-02-28T07:16:21;6.65;;;4.88;;
63012;SDS011;62113;45.624;11.700;2023-02-28T07:21:14;11.67;;;5.23;;
63012;SDS011;62113;45.624;11.700;2023-02-28T07:23:40;9.05;;;5.30;;
63012;SDS011;62113;45.624;11.700;2023-02-28T07:26:07;8.82;;;4.82;;
63012;SDS011;62113;45.624;11.700;2023-02-28T07:28:36;9.65;;;5.78;;
63012;SDS011;62113;45.624;11.700;2023-02-28T07:33:32;8.40;;;5.20;;
63012;SDS011;62113;45.624;11.700;2023-02-28T07:36:03;7.68;;;5.63;;
63012;SDS011;62113;45.624;11.700;2023-02-28T07:38:30;7.95;;;5.00;;
63012;SDS011;62113;45.624;11.700;2023-02-28T07:40:58;13.02;;;8.10;;
63012;SDS011;62113;45.624;11.700;2023-02-28T07:43:24;12.73;;;8.57;;
63012;SDS011;62113;45.624;11.700;2023-02-28T07:45:49;8.83;;;5.37;;
63012;SDS011;62113;45.624;11.700;2023-02-28T07:48:15;8.27;;;5.30;;
63012;SDS011;62113;45.624;11.700;2023-02-28T07:50:40;7.90;;;5.63;;
63012;SDS011;62113;45.624;11.700;2023-02-28T07:53:06;9.13;;;5.93;;
63012;SDS011;62113;45.624;11.700;2023-02-28T07:55:32;7.03;;;5.37;;
63012;SDS011;62113;45.624;11.700;2023-02-28T07:57:57;7.73;;;4.80;;
63012;SDS011;62113;45.624;11.700;2023-02-28T08:00:23;7.50;;;5.57;;
63012;SDS011;62113;45.624;11.700;2023-02-28T08:02:49;8.53;;;5.37;;
63012;SDS011;62113;45.624;11.700;2023-02-28T08:05:15;7.73;;;5.30;;
63012;SDS011;62113;45.624;11.700;2023-02-28T08:07:41;7.50;;;5.53;;
63012;SDS011;62113;45.624;11.700;2023-02-28T08:10:06;13.47;;;6.20;;
63012;SDS011;62113;45.624;11.700;2023-02-28T08:12:34;8.68;;;5.70;;
63012;SDS011;62113;45.624;11.700;2023-02-28T08:15:00;7.73;;;4.87;;
63012;SDS011;62113;45.624;11.700;2023-02-28T08:17:26;7.47;;;5.27;;
63012;SDS011;62113;45.624;11.700;2023-02-28T08:19:51;7.37;;;5.20;;
63012;SDS011;62113;45.624;11.700;2023-02-28T08:22:17;9.15;;;5.68;;
63012;SDS011;62113;45.624;11.700;2023-02-28T08:24:43;11.23;;;6.50;;
63012;SDS011;62113;45.624;11.700;2023-02-28T08:27:09;13.43;;;5.90;;
63012;SDS011;62113;45.624;11.700;2023-02-28T08:29:36;8.40;;;4.30;;
63012;SDS011;62113;45.624;11.700;2023-02-28T08:32:04;8.98;;;5.30;;
63012;SDS011;62113;45.624;11.700;2023-02-28T08:34:30;8.43;;;5.68;;
63012;SDS011;62113;45.624;11.700;2023-02-28T08:36:56;7.80;;;5.03;;
63012;SDS011;62113;45.624;11.700;2023-02-28T08:39:21;6.17;;;3.67;;
63012;SDS011;62113;45.624;11.700;2023-02-28T08:41:47;16.13;;;5.03;;
63012;SDS011;62113;45.624;11.700;2023-02-28T08:44:12;9.10;;;5.50;;
63012;SDS011;62113;45.624;11.700;2023-02-28T08:46:38;7.30;;;5.13;;
63012;SDS011;62113;45.624;11.700;2023-02-28T08:49:04;10.37;;;4.50;;
63012;SDS011;62113;45.624;11.700;2023-02-28T08:51:29;7.63;;;5.13;;
63012;SDS011;62113;45.624;11.700;2023-02-28T08:53:58;8.68;;;4.85;;
63012;SDS011;62113;45.624;11.700;2023-02-28T08:56:25;7.78;;;5.28;;
63012;SDS011;62113;45.624;11.700;2023-02-28T08:58:53;5.35;;;3.05;;
63012;SDS011;62113;45.624;11.700;2023-02-28T09:01:24;13.18;;;5.82;;
63012;SDS011;62113;45.624;11.700;2023-02-28T09:03:53;8.85;;;5.32;;
63012;SDS011;62113;45.624;11.700;2023-02-28T09:06:21;8.50;;;5.57;;
63012;SDS011;62113;45.624;11.700;2023-02-28T09:08:49;12.60;;;5.15;;
63012;SDS011;62113;45.624;11.700;2023-02-28T09:11:15;5.85;;;4.40;;
63012;SDS011;62113;45.624;11.700;2023-02-28T09:13:41;6.03;;;3.85;;
63012;SDS011;62113;45.624;11.700;2023-02-28T09:16:07;15.13;;;5.10;;
63012;SDS011;62113;45.624;11.700;2023-02-28T09:18:35;9.05;;;4.82;;
63012;SDS011;62113;45.624;11.700;2023-02-28T09:21:05;12.32;;;5.28;;
63012;SDS011;62113;45.624;11.700;2023-02-28T09:23:34;9.65;;;4.95;;
63012;SDS011;62113;45.624;11.700;2023-02-28T09:26:02;9.52;;;4.97;;
63012;SDS011;62113;45.624;11.700;2023-02-28T09:28:28;10.87;;;4.63;;
63012;SDS011;62113;45.624;11.700;2023-02-28T09:30:54;8.87;;;5.00;;
63012;SDS011;62113;45.624;11.700;2023-02-28T09:33:22;7.57;;;4.78;;
63012;SDS011;62113;45.624;11.700;2023-02-28T09:35:48;6.43;;;4.20;;
63012;SDS011;62113;45.624;11.700;2023-02-28T09:38:14;7.07;;;4.78;;
63012;SDS011;62113;45.624;11.700;2023-02-28T09:41:00;5.40;;;3.23;;
63012;SDS011;62113;45.624;11.700;2023-02-28T09:43:38;7.05;;;3.63;;
63012;SDS011;62113;45.624;11.700;2023-02-28T09:46:14;12.43;;;7.15;;
63012;SDS011;62113;45.624;11.700;2023-02-28T09:48:45;6.50;;;4.35;;
63012;SDS011;62113;45.624;11.700;2023-02-28T09:53:57;7.82;;;4.82;;
63012;SDS011;62113;45.624;11.700;2023-02-28T09:56:28;5.93;;;4.63;;
63012;SDS011;62113;45.624;11.700;2023-02-28T10:02:01;4.97;;;3.88;;
63012;SDS011;62113;45.624;11.700;2023-02-28T10:10:42;10.20;;;3.00;;
63012;SDS011;62113;45.624;11.700;2023-02-28T10:13:19;10.88;;;4.80;;
63012;SDS011;62113;45.624;11.700;2023-02-28T10:16:11;8.70;;;5.18;;
63012;SDS011;62113;45.624;11.700;2023-02-28T10:18:44;5.05;;;3.90;;
63012;SDS011;62113;45.624;11.700;2023-02-28T10:21:16;10.50;;;4.82;;
63012;SDS011;62113;45.624;11.700;2023-02-28T10:23:48;8.75;;;4.70;;
63012;SDS011;62113;45.624;11.700;2023-02-28T10:26:17;7.50;;;5.15;;
63012;SDS011;62113;45.624;11.700;2023-02-28T10:28:43;7.67;;;4.70;;
63012;SDS011;62113;45.624;11.700;2023-02-28T10:31:11;12.88;;;4.82;;
63012;SDS011;62113;45.624;11.700;2023-02-28T10:33:42;11.23;;;3.92;;
63012;SDS011;62113;45.624;11.700;2023-02-28T10:36:08;12.53;;;4.17;;
63012;SDS011;62113;45.624;11.700;2023-02-28T10:38:41;4.15;;;2.92;;
63012;SDS011;62113;45.624;11.700;2023-02-28T10:41:12;6.30;;;4.43;;
63012;SDS011;62113;45.624;11.700;2023-02-28T10:43:53;11.32;;;4.82;;
63012;SDS011;62113;45.624;11.700;2023-02-28T10:46:44;6.28;;;4.68;;
63012;SDS011;62113;45.624;11.700;2023-02-28T10:49:17;5.83;;;3.27;;
63012;SDS011;62113;45.624;11.700;2023-02-28T10:51:52;9.50;;;5.20;;
63012;SDS011;62113;45.624;11.700;2023-02-28T10:57:36;4.30;;;3.42;;
63012;SDS011;62113;45.624;11.700;2023-02-28T10:59:45;6.35;;;4.03;;
63012;SDS011;62113;45.624;11.700;2023-02-28T11:02:31;7.63;;;4.18;;
63012;SDS011;62113;45.624;11.700;2023-02-28T11:04:59;9.60;;;3.50;;
63012;SDS011;62113;45.624;11.700;2023-02-28T11:07:25;7.87;;;4.03;;
63012;SDS011;62113;45.624;11.700;2023-02-28T11:09:53;6.53;;;4.10;;
63012;SDS011;62113;45.624;11.700;2023-02-28T11:12:29;4.10;;;3.08;;
63012;SDS011;62113;45.624;11.700;2023-02-28T11:15:05;8.75;;;4.47;;
63012;SDS011;62113;45.624;11.700;2023-02-28T11:17:53;8.18;;;4.47;;
63012;SDS011;62113;45.624;11.700;2023-02-28T11:20:23;7.55;;;4.28;;
63012;SDS011;62113;45.624;11.700;2023-02-28T11:22:51;6.03;;;3.95;;
63012;SDS011;62113;45.624;11.700;2023-02-28T11:28:24;7.72;;;4.18;;
63012;SDS011;62113;45.624;11.700;2023-02-28T11:31:00;6.97;;;4.07;;
63012;SDS011;62113;45.624;11.700;2023-02-28T11:36:23;6.20;;;3.60;;
63012;SDS011;62113;45.624;11.700;2023-02-28T11:38:56;8.13;;;3.92;;
63012;SDS011;62113;45.624;11.700;2023-02-28T11:41:38;4.72;;;3.35;;
63012;SDS011;62113;45.624;11.700;2023-02-28T11:47:03;11.02;;;5.32;;
63012;SDS011;62113;45.624;11.700;2023-02-28T11:49:54;7.13;;;5.05;;
63012;SDS011;62113;45.624;11.700;2023-02-28T11:52:48;4.93;;;3.70;;
63012;SDS011;62113;45.624;11.700;2023-02-28T11:55:24;12.68;;;4.88;;
63012;SDS011;62113;45.624;11.700;2023-02-28T11:58:02;10.52;;;4.15;;
63012;SDS011;62113;45.624;11.700;2023-02-28T12:03:39;12.07;;;4.80;;
63012;SDS011;62113;45.624;11.700;2023-02-28T12:06:36;7.70;;;4.63;;
63012;SDS011;62113;45.624;11.700;2023-02-28T12:16:55;14.18;;;4.72;;
63012;SDS011;62113;45.624;11.700;2023-02-28T12:27:33;10.65;;;6.25;;
63012;SDS011;62113;45.624;11.700;2023-02-28T12:30:08;5.75;;;4.22;;
63012;SDS011;62113;45.624;11.700;2023-02-28T12:32:41;9.88;;;6.20;;
63012;SDS011;62113;45.624;11.700;2023-02-28T12:35:14;8.70;;;5.93;;
63012;SDS011;62113;45.624;11.700;2023-02-28T12:40:42;8.35;;;5.72;;
63012;SDS011;62113;45.624;11.700;2023-02-28T12:43:25;9.02;;;5.88;;
63012;SDS011;62113;45.624;11.700;2023-02-28T12:45:57;10.48;;;6.82;;
63012;SDS011;62113;45.624;11.700;2023-02-28T12:48:31;13.20;;;5.05;;
63012;SDS011;62113;45.624;11.700;2023-02-28T12:51:04;10.90;;;5.88;;
63012;SDS011;62113;45.624;11.700;2023-02-28T12:58:51;10.13;;;5.78;;
63012;SDS011;62113;45.624;11.700;2023-02-28T13:10:02;7.13;;;3.92;;
63012;SDS011;62113;45.624;11.700;2023-02-28T13:12:32;6.50;;;4.32;;
63012;SDS011;62113;45.624;11.700;2023-02-28T13:17:57;5.68;;;4.28;;
63012;SDS011;62113;45.624;11.700;2023-02-28T13:20:25;9.00;;;5.35;;
63012;SDS011;62113;45.624;11.700;2023-02-28T13:22:59;9.73;;;5.55;;
63012;SDS011;62113;45.624;11.700;2023-02-28T13:28:10;9.70;;;4.93;;
63012;SDS011;62113;45.624;11.700;2023-02-28T13:33:20;10.07;;;7.00;;
63012;SDS011;62113;45.624;11.700;2023-02-28T13:36:06;5.38;;;4.10;;
63012;SDS011;62113;45.624;11.700;2023-02-28T13:38:53;8.27;;;5.38;;
63012;SDS011;62113;45.624;11.700;2023-02-28T13:44:17;4.72;;;4.28;;
63012;SDS011;62113;45.624;11.700;2023-02-28T13:51:54;6.78;;;5.05;;
63012;SDS011;62113;45.624;11.700;2023-02-28T13:54:36;8.23;;;5.03;;
63012;SDS011;62113;45.624;11.700;2023-02-28T14:03:22;8.45;;;5.15;;
63012;SDS011;62113;45.624;11.700;2023-02-28T14:08:52;6.82;;;4.90;;
63012;SDS011;62113;45.624;11.700;2023-02-28T14:11:35;7.75;;;5.32;;
63012;SDS011;62113;45.624;11.700;2023-02-28T14:14:03;9.13;;;5.43;;
63012;SDS011;62113;45.624;11.700;2023-02-28T14:27:37;5.85;;;4.95;;
63012;SDS011;62113;45.624;11.700;2023-02-28T14:38:52;10.68;;;5.20;;
63012;SDS011;62113;45.624;11.700;2023-02-28T14:41:33;9.80;;;5.20;;
63012;SDS011;62113;45.624;11.700;2023-02-28T14:44:02;9.85;;;4.78;;
63012;SDS011;62113;45.624;11.700;2023-02-28T14:47:01;6.60;;;5.25;;
63012;SDS011;62113;45.624;11.700;2023-02-28T14:49:37;8.43;;;4.50;;
63012;SDS011;62113;45.624;11.700;2023-02-28T14:54:42;12.30;;;6.40;;
63012;SDS011;62113;45.624;11.700;2023-02-28T14:59:56;6.40;;;5.28;;
63012;SDS011;62113;45.624;11.700;2023-02-28T15:02:24;10.93;;;4.68;;
63012;SDS011;62113;45.624;11.700;2023-02-28T15:04:54;15.35;;;4.88;;
63012;SDS011;62113;45.624;11.700;2023-02-28T15:07:25;5.85;;;5.13;;
63012;SDS011;62113;45.624;11.700;2023-02-28T15:12:45;8.20;;;5.85;;
63012;SDS011;62113;45.624;11.700;2023-02-28T15:15:21;10.07;;;5.65;;
63012;SDS011;62113;45.624;11.700;2023-02-28T15:17:52;3.53;;;3.00;;
63012;SDS011;62113;45.624;11.700;2023-02-28T15:20:21;8.52;;;5.18;;
63012;SDS011;62113;45.624;11.700;2023-02-28T15:22:49;8.85;;;5.40;;
63012;SDS011;62113;45.624;11.700;2023-02-28T15:25:19;8.75;;;5.00;;
63012;SDS011;62113;45.624;11.700;2023-02-28T15:27:50;7.28;;;4.95;;
63012;SDS011;62113;45.624;11.700;2023-02-28T15:30:30;7.88;;;4.95;;
63012;SDS011;62113;45.624;11.700;2023-02-28T15:33:05;5.53;;;4.63;;
63012;SDS011;62113;45.624;11.700;2023-02-28T15:35:42;13.02;;;4.65;;
63012;SDS011;62113;45.624;11.700;2023-02-28T15:40:52;11.57;;;5.43;;
63012;SDS011;62113;45.624;11.700;2023-02-28T15:45:56;6.80;;;5.22;;
63012;SDS011;62113;45.624;11.700;2023-02-28T15:50:53;11.68;;;5.55;;
63012;SDS011;62113;45.624;11.700;2023-02-28T15:53:30;17.85;;;8.82;;
63012;SDS011;62113;45.624;11.700;2023-02-28T15:56:00;12.77;;;7.63;;
63012;SDS011;62113;45.624;11.700;2023-02-28T15:58:28;21.15;;;7.45;;
63012;SDS011;62113;45.624;11.700;2023-02-28T16:01:03;22.80;;;7.57;;
63012;SDS011;62113;45.624;11.700;2023-02-28T16:03:39;13.05;;;5.78;;
63012;SDS011;62113;45.624;11.700;2023-02-28T16:06:09;13.30;;;6.68;;
63012;SDS011;62113;45.624;11.700;2023-02-28T16:09:02;6.53;;;4.57;;
63012;SDS011;62113;45.624;11.700;2023-02-28T16:13:55;11.23;;;4.63;;
63012;SDS011;62113;45.624;11.700;2023-02-28T16:16:23;10.77;;;5.22;;
63012;SDS011;62113;45.624;11.700;2023-02-28T16:18:51;16.58;;;4.93;;
63012;SDS011;62113;45.624;11.700;2023-02-28T16:21:17;23.40;;;5.70;;
63012;SDS011;62113;45.624;11.700;2023-02-28T16:23:42;19.80;;;5.80;;
63012;SDS011;62113;45.624;11.700;2023-02-28T16:26:09;8.75;;;5.22;;
63012;SDS011;62113;45.624;11.700;2023-02-28T16:28:49;14.40;;;5.22;;
63012;SDS011;62113;45.624;11.700;2023-02-28T16:31:16;9.45;;;5.68;;
63012;SDS011;62113;45.624;11.700;2023-02-28T16:33:43;6.60;;;4.38;;
63012;SDS011;62113;45.624;11.700;2023-02-28T16:36:13;11.65;;;4.93;;
63012;SDS011;62113;45.624;11.700;2023-02-28T16:38:40;11.35;;;5.57;;
63012;SDS011;62113;45.624;11.700;2023-02-28T16:41:05;14.75;;;5.80;;
63012;SDS011;62113;45.624;11.700;2023-02-28T16:43:31;18.48;;;5.70;;
63012;SDS011;62113;45.624;11.700;2023-02-28T16:45:57;22.27;;;7.40;;
63012;SDS011;62113;45.624;11.700;2023-02-28T16:48:25;22.80;;;7.80;;
63012;SDS011;62113;45.624;11.700;2023-02-28T16:50:50;22.90;;;7.63;;
63012;SDS011;62113;45.624;11.700;2023-02-28T16:53:16;20.10;;;7.20;;
63012;SDS011;62113;45.624;11.700;2023-02-28T16:55:42;29.33;;;9.52;;
63012;SDS011;62113;45.624;11.700;2023-02-28T16:58:11;18.60;;;10.27;;
63012;SDS011;62113;45.624;11.700;2023-02-28T17:00:40;14.82;;;7.55;;
63012;SDS011;62113;45.624;11.700;2023-02-28T17:03:17;16.67;;;7.50;;
63012;SDS011;62113;45.624;11.700;2023-02-28T17:05:48;16.83;;;7.40;;
63012;SDS011;62113;45.624;11.700;2023-02-28T17:08:14;18.02;;;8.43;;
63012;SDS011;62113;45.624;11.700;2023-02-28T17:10:39;18.50;;;8.73;;
63012;SDS011;62113;45.624;11.700;2023-02-28T17:13:05;19.08;;;9.23;;
63012;SDS011;62113;45.624;11.700;2023-02-28T17:15:32;12.25;;;8.25;;
63012;SDS011;62113;45.624;11.700;2023-02-28T17:17:58;13.25;;;7.38;;
63012;SDS011;62113;45.624;11.700;2023-02-28T17:20:24;20.70;;;7.13;;
63012;SDS011;62113;45.624;11.700;2023-02-28T17:25:19;19.05;;;8.23;;
63012;SDS011;62113;45.624;11.700;2023-02-28T17:27:46;20.20;;;7.80;;
63012;SDS011;62113;45.624;11.700;2023-02-28T17:30:45;19.45;;;7.30;;
63012;SDS011;62113;45.624;11.700;2023-02-28T17:33:11;20.77;;;8.40;;
63012;SDS011;62113;45.624;11.700;2023-02-28T17:35:37;15.55;;;9.25;;
63012;SDS011;62113;45.624;11.700;2023-02-28T17:38:02;19.42;;;9.70;;
63012;SDS011;62113;45.624;11.700;2023-02-28T17:40:28;19.67;;;9.77;;